createdAt,value
2018-05-25T00:00:36.346Z,89.82
2018-05-25T00:03:03.850Z,89.84
2018-05-25T00:05:32.245Z,89.85
2018-05-25T00:07:59.742Z,89.71
2018-05-25T00:10:27.224Z,89.66
2018-05-25T00:12:54.783Z,89.32
2018-05-25T00:15:22.262Z,89.87
2018-05-25T00:17:49.742Z,89.92
2018-05-25T00:20:17.260Z,90.21
2018-05-25T00:22:44.740Z,90.52
2018-05-25T00:25:12.242Z,91.19
2018-05-25T00:27:39.716Z,91.12
2018-05-25T00:30:07.210Z,90.96
2018-05-25T00:32:34.690Z,90.47
2018-05-25T00:35:02.182Z,89.94
2018-05-25T00:37:29.655Z,90.08
2018-05-25T00:39:57.146Z,90.01
2018-05-25T00:42:24.614Z,90.32
2018-05-25T00:44:52.118Z,90.31
2018-05-25T00:47:19.594Z,90.44
2018-05-25T00:49:47.111Z,90.32
2018-05-25T00:52:14.587Z,90.66
2018-05-25T00:57:35.319Z,91.50
2018-05-25T01:00:02.823Z,91.66
2018-05-25T01:02:30.293Z,91.80
2018-05-25T01:04:57.833Z,91.83
2018-05-25T01:07:25.330Z,92.10
2018-05-25T01:09:52.793Z,92.23
2018-05-25T01:12:20.281Z,92.24
2018-05-25T01:14:47.759Z,92.30
2018-05-25T01:17:15.257Z,92.28
2018-05-25T01:19:42.734Z,92.04
2018-05-25T01:22:10.230Z,92.22
2018-05-25T01:24:37.713Z,92.39
2018-05-25T01:27:05.211Z,92.44
2018-05-25T01:29:32.685Z,92.52
2018-05-25T01:32:00.174Z,92.50
2018-05-25T01:34:27.646Z,92.70
2018-05-25T01:36:55.123Z,92.70
2018-05-25T01:39:22.626Z,92.75
2018-05-25T01:41:50.114Z,92.85
2018-05-25T01:44:17.609Z,93.00
2018-05-25T01:46:45.094Z,93.11
2018-05-25T01:49:12.582Z,93.23
2018-05-25T01:51:40.069Z,93.31
2018-05-25T01:54:07.562Z,93.20
2018-05-25T01:56:35.046Z,93.12
2018-05-25T01:59:03.174Z,93.20
2018-05-25T02:01:30.714Z,93.12
2018-05-25T02:03:58.224Z,93.33
2018-05-25T02:06:25.699Z,93.49
2018-05-25T02:08:53.188Z,93.57
2018-05-25T02:11:20.687Z,93.59
2018-05-25T02:13:48.162Z,93.67
2018-05-25T02:16:15.670Z,93.71
2018-05-25T02:18:43.669Z,93.93
2018-05-25T02:21:11.162Z,94.06
2018-05-25T02:23:38.644Z,94.11
2018-05-25T02:26:07.086Z,94.38
2018-05-25T02:28:34.579Z,94.50
2018-05-25T02:31:02.082Z,94.61
2018-05-25T02:33:29.559Z,94.67
2018-05-25T02:35:57.070Z,94.69
2018-05-25T02:38:24.549Z,94.76
2018-05-25T02:40:52.030Z,94.78
2018-05-25T02:43:19.520Z,94.71
2018-05-25T02:45:46.999Z,94.57
2018-05-25T02:48:14.533Z,94.31
2018-05-25T02:50:41.994Z,93.92
2018-05-25T02:53:09.486Z,93.63
2018-05-25T02:55:36.962Z,93.18
2018-05-25T02:58:04.449Z,92.63
2018-05-25T03:00:31.927Z,92.30
2018-05-25T03:02:59.486Z,92.36
2018-05-25T03:05:26.958Z,92.62
2018-05-25T03:07:54.463Z,92.58
2018-05-25T03:10:21.938Z,92.82
2018-05-25T03:12:49.418Z,92.92
2018-05-25T03:15:16.905Z,93.06
2018-05-25T03:17:44.382Z,93.47
2018-05-25T03:20:11.904Z,93.72
2018-05-25T03:22:39.378Z,94.07
2018-05-25T03:25:06.975Z,94.38
2018-05-25T03:27:34.445Z,94.59
2018-05-25T03:30:01.930Z,94.81
2018-05-25T03:32:29.418Z,94.95
2018-05-25T03:34:56.910Z,95.10
2018-05-25T03:37:24.381Z,95.27
2018-05-25T03:40:09.641Z,95.47
2018-05-25T03:42:37.118Z,95.59
2018-05-25T03:45:04.665Z,95.58
2018-05-25T03:47:32.166Z,95.67
2018-05-25T03:49:59.663Z,95.84
2018-05-25T03:52:27.146Z,95.92
2018-05-25T03:54:54.637Z,95.91
2018-05-25T03:57:22.109Z,95.90
2018-05-25T04:00:01.351Z,95.85
2018-05-25T04:02:28.830Z,95.83
2018-05-25T04:04:56.314Z,95.74
2018-05-25T04:07:23.813Z,95.50
2018-05-25T04:09:51.286Z,95.13
2018-05-25T04:12:18.778Z,95.18
2018-05-25T04:14:46.254Z,94.77
2018-05-25T04:17:13.745Z,94.37
2018-05-25T04:19:41.218Z,94.47
2018-05-25T04:22:08.706Z,94.64
2018-05-25T04:24:36.182Z,94.64
2018-05-25T04:27:03.677Z,94.56
2018-05-25T04:29:31.150Z,94.55
2018-05-25T04:31:58.641Z,94.65
2018-05-25T04:34:26.125Z,95.01
2018-05-25T04:36:53.621Z,94.97
2018-05-25T04:39:21.094Z,94.92
2018-05-25T04:41:48.593Z,94.54
2018-05-25T04:44:16.070Z,93.84
2018-05-25T04:46:44.527Z,92.81
2018-05-25T04:49:12.003Z,92.10
2018-05-25T04:51:39.490Z,91.20
2018-05-25T04:54:06.966Z,91.00
2018-05-25T04:56:34.462Z,90.62
2018-05-25T04:59:01.953Z,90.42
2018-05-25T05:01:29.453Z,90.37
2018-05-25T05:03:56.925Z,90.39
2018-05-25T05:06:24.430Z,90.31
2018-05-25T05:08:52.134Z,90.09
2018-05-25T05:11:19.849Z,89.97
2018-05-25T05:13:47.359Z,89.52
2018-05-25T05:16:14.865Z,89.28
2018-05-25T05:18:42.337Z,89.40
2018-05-25T05:21:10.170Z,89.54
2018-05-25T05:23:37.647Z,89.47
2018-05-25T05:26:05.159Z,89.18
2018-05-25T05:28:32.678Z,89.35
2018-05-25T05:31:00.149Z,89.66
2018-05-25T05:33:27.647Z,89.22
2018-05-25T05:35:55.126Z,88.51
2018-05-25T05:38:22.622Z,87.65
2018-05-25T05:40:50.111Z,88.20
2018-05-25T05:43:17.619Z,87.37
2018-05-25T05:46:07.330Z,87.12
2018-05-25T05:48:34.830Z,87.93
2018-05-25T05:51:02.309Z,86.95
2018-05-25T05:53:29.813Z,87.28
2018-05-25T05:55:57.294Z,87.26
2018-05-25T05:58:24.786Z,87.25
2018-05-25T06:00:53.008Z,87.59
2018-05-25T06:03:20.504Z,85.68
2018-05-25T06:05:48.072Z,84.10
2018-05-25T06:08:15.574Z,83.95
2018-05-25T06:10:43.058Z,83.42
2018-05-25T06:13:10.561Z,83.27
2018-05-25T06:15:38.099Z,82.49
2018-05-25T06:18:05.637Z,82.84
2018-05-25T06:20:33.116Z,81.99
2018-05-25T06:23:00.627Z,80.71
2018-05-25T06:25:28.152Z,80.22
2018-05-25T06:27:55.624Z,81.54
2018-05-25T06:30:23.089Z,81.48
2018-05-25T06:32:50.585Z,81.11
2018-05-25T06:35:18.055Z,80.49
2018-05-25T06:37:45.565Z,80.88
2018-05-25T06:40:13.041Z,80.65
2018-05-25T06:42:40.535Z,82.49
2018-05-25T06:45:08.016Z,82.51
2018-05-25T06:47:35.514Z,80.52
2018-05-25T06:50:02.997Z,79.75
2018-05-25T06:52:30.504Z,78.86
2018-05-25T06:54:57.977Z,77.60
2018-05-25T06:57:26.308Z,77.53
2018-05-25T06:59:53.920Z,77.48
2018-05-25T07:02:21.398Z,76.81
2018-05-25T07:04:48.885Z,76.48
2018-05-25T07:07:16.366Z,75.45
2018-05-25T07:09:43.862Z,74.79
2018-05-25T07:12:11.334Z,75.61
2018-05-25T07:14:38.836Z,74.61
2018-05-25T07:17:06.334Z,73.60
2018-05-25T07:19:33.832Z,73.55
2018-05-25T07:22:01.298Z,73.87
2018-05-25T07:24:28.792Z,74.05
2018-05-25T07:26:56.265Z,74.01
2018-05-25T07:29:23.754Z,72.83
2018-05-25T07:32:05.774Z,72.48
2018-05-25T07:34:33.284Z,71.19
2018-05-25T07:37:00.765Z,71.00
2018-05-25T07:39:28.263Z,70.04
2018-05-25T07:41:55.737Z,70.69
2018-05-25T07:44:23.237Z,69.96
2018-05-25T07:46:50.714Z,70.61
2018-05-25T07:49:18.301Z,70.75
2018-05-25T07:51:45.769Z,69.48
2018-05-25T07:54:13.265Z,68.99
2018-05-25T07:56:40.742Z,69.18
2018-05-25T07:59:08.240Z,70.43
2018-05-25T08:01:35.725Z,69.89
2018-05-25T08:04:03.218Z,68.19
2018-05-25T08:06:30.690Z,69.43
2018-05-25T08:08:58.198Z,68.60
2018-05-25T08:11:25.683Z,66.52
2018-05-25T08:13:53.176Z,65.26
2018-05-25T08:16:20.641Z,65.41
2018-05-25T08:18:48.138Z,66.30
2018-05-25T08:21:15.723Z,66.79
2018-05-25T08:23:43.295Z,66.12
2018-05-25T08:29:04.153Z,64.79
2018-05-25T08:31:31.640Z,63.14
2018-05-25T08:33:59.142Z,64.09
2018-05-25T08:36:26.614Z,62.52
2018-05-25T08:38:54.087Z,62.73
2018-05-25T08:41:21.574Z,62.36
2018-05-25T08:43:49.038Z,64.07
2018-05-25T08:46:16.530Z,64.11
2018-05-25T08:48:43.995Z,62.51
2018-05-25T08:51:11.539Z,62.52
2018-05-25T08:53:38.954Z,61.77
2018-05-25T08:56:06.443Z,61.54
2018-05-25T08:58:33.916Z,62.05
2018-05-25T09:01:01.428Z,61.53
2018-05-25T09:03:28.882Z,63.18
2018-05-25T09:05:56.362Z,64.36
2018-05-25T09:08:23.826Z,61.41
2018-05-25T09:10:51.357Z,64.52
2018-05-25T09:13:18.797Z,63.75
2018-05-25T09:15:46.282Z,64.45
2018-05-25T09:18:13.758Z,64.79
2018-05-25T09:20:41.253Z,63.18
2018-05-25T09:23:08.713Z,62.51
2018-05-25T09:25:36.198Z,62.84
2018-05-25T09:28:03.657Z,61.94
2018-05-25T09:30:31.137Z,60.45
2018-05-25T09:32:58.606Z,61.10
2018-05-25T09:35:26.101Z,61.87
2018-05-25T09:37:53.558Z,60.17
2018-05-25T09:40:21.042Z,59.83
2018-05-25T09:42:48.505Z,62.40
2018-05-25T09:45:15.989Z,62.10
2018-05-25T09:47:43.451Z,61.58
2018-05-25T09:50:10.942Z,62.22
2018-05-25T09:52:38.410Z,60.06
2018-05-25T09:55:05.907Z,59.35
2018-05-25T09:57:33.369Z,58.07
2018-05-25T10:00:00.836Z,59.14
2018-05-25T10:02:28.313Z,61.10
2018-05-25T10:04:55.773Z,61.79
2018-05-25T10:07:23.266Z,61.10
2018-05-25T10:09:50.746Z,58.97
2018-05-25T10:12:18.245Z,61.25
2018-05-25T10:14:45.705Z,63.49
2018-05-25T10:17:13.204Z,65.76
2018-05-25T10:19:40.666Z,63.13
2018-05-25T10:22:08.150Z,60.11
2018-05-25T10:24:35.624Z,59.03
2018-05-25T10:27:03.123Z,60.73
2018-05-25T10:29:30.603Z,60.59
2018-05-25T10:31:58.087Z,58.21
2018-05-25T10:34:25.551Z,56.68
2018-05-25T10:36:53.034Z,56.12
2018-05-25T10:39:20.497Z,55.22
2018-05-25T10:41:48.009Z,55.31
2018-05-25T10:44:15.471Z,57.43
2018-05-25T10:46:42.959Z,55.68
2018-05-25T10:49:10.448Z,57.45
2018-05-25T10:51:37.938Z,56.14
2018-05-25T10:54:05.419Z,54.47
2018-05-25T10:56:32.910Z,54.62
2018-05-25T10:59:00.378Z,55.61
2018-05-25T11:01:35.153Z,55.48
2018-05-25T11:04:02.617Z,54.34
2018-05-25T11:06:30.097Z,55.71
2018-05-25T11:08:57.570Z,54.01
2018-05-25T11:11:25.049Z,52.25
2018-05-25T11:13:52.528Z,52.12
2018-05-25T11:16:20.017Z,54.28
2018-05-25T11:18:47.477Z,48.72
2018-05-25T11:21:14.965Z,51.53
2018-05-25T11:23:42.443Z,51.89
2018-05-25T11:26:09.913Z,49.88
2018-05-25T11:28:37.402Z,50.44
2018-05-25T11:31:04.866Z,49.52
2018-05-25T11:33:32.350Z,49.50
2018-05-25T11:35:59.820Z,49.03
2018-05-25T11:38:27.314Z,51.09
2018-05-25T11:40:54.783Z,52.63
2018-05-25T11:43:22.282Z,52.72
2018-05-25T11:45:49.758Z,52.22
2018-05-25T11:48:24.929Z,50.22
2018-05-25T11:50:52.398Z,49.09
2018-05-25T11:53:19.877Z,48.14
2018-05-25T11:55:47.347Z,47.43
2018-05-25T11:58:14.849Z,49.27
2018-05-25T12:00:42.322Z,48.81
2018-05-25T12:03:09.806Z,48.09
2018-05-25T12:05:37.281Z,47.21
2018-05-25T12:08:04.778Z,47.89
2018-05-25T12:10:32.241Z,45.94
2018-05-25T12:12:59.725Z,46.79
2018-05-25T12:15:27.216Z,47.02
2018-05-25T12:17:54.710Z,46.74
2018-05-25T12:20:22.179Z,46.52
2018-05-25T12:22:49.664Z,46.52
2018-05-25T12:25:17.139Z,44.86
2018-05-25T12:27:44.634Z,48.32
2018-05-25T12:30:12.129Z,48.33
2018-05-25T12:32:39.630Z,48.00
2018-05-25T12:35:07.098Z,44.04
2018-05-25T12:37:34.593Z,43.67
